sensor_id;sensor_type;location;lat;lon;timestamp;temperature;humidity
74153;DHT22;62505;46.070;14.492;2023-01-06T00:02:14;21.60;69.20
74153;DHT22;62505;46.070;14.492;2023-01-06T00:04:41;21.60;69.20
74153;DHT22;62505;46.070;14.492;2023-01-06T00:07:08;21.60;69.20
74153;DHT22;62505;46.070;14.492;2023-01-06T00:09:35;21.60;69.20
74153;DHT22;62505;46.070;14.492;2023-01-06T00:12:03;21.60;69.20
74153;DHT22;62505;46.070;14.492;2023-01-06T00:14:30;21.60;69.30
74153;DHT22;62505;46.070;14.492;2023-01-06T00:16:57;21.60;69.30
74153;DHT22;62505;46.070;14.492;2023-01-06T00:19:25;21.60;69.30
74153;DHT22;62505;46.070;14.492;2023-01-06T00:21:52;21.60;69.30
74153;DHT22;62505;46.070;14.492;2023-01-06T00:24:19;21.60;70.10
74153;DHT22;62505;46.070;14.492;2023-01-06T00:26:46;21.60;69.30
74153;DHT22;62505;46.070;14.492;2023-01-06T00:29:12;21.60;69.30
74153;DHT22;62505;46.070;14.492;2023-01-06T00:31:39;21.60;69.40
74153;DHT22;62505;46.070;14.492;2023-01-06T00:34:06;21.60;69.40
74153;DHT22;62505;46.070;14.492;2023-01-06T00:36:34;21.60;69.40
74153;DHT22;62505;46.070;14.492;2023-01-06T00:39:02;21.60;69.40
74153;DHT22;62505;46.070;14.492;2023-01-06T00:41:29;21.60;69.50
74153;DHT22;62505;46.070;14.492;2023-01-06T00:44:13;21.60;69.40
74153;DHT22;62505;46.070;14.492;2023-01-06T00:46:40;21.60;69.50
74153;DHT22;62505;46.070;14.492;2023-01-06T00:49:07;21.60;69.50
74153;DHT22;62505;46.070;14.492;2023-01-06T00:51:37;21.60;70.30
74153;DHT22;62505;46.070;14.492;2023-01-06T00:54:05;21.60;69.50
74153;DHT22;62505;46.070;14.492;2023-01-06T00:56:35;21.60;69.50
74153;DHT22;62505;46.070;14.492;2023-01-06T00:59:02;21.60;69.60
74153;DHT22;62505;46.070;14.492;2023-01-06T01:01:29;21.60;69.60
74153;DHT22;62505;46.070;14.492;2023-01-06T01:03:56;21.60;69.60
74153;DHT22;62505;46.070;14.492;2023-01-06T01:06:23;21.60;69.60
74153;DHT22;62505;46.070;14.492;2023-01-06T01:08:53;21.60;69.60
74153;DHT22;62505;46.070;14.492;2023-01-06T01:11:21;21.60;69.60
74153;DHT22;62505;46.070;14.492;2023-01-06T01:14:06;21.60;69.70
74153;DHT22;62505;46.070;14.492;2023-01-06T01:16:33;21.60;69.70
74153;DHT22;62505;46.070;14.492;2023-01-06T01:19:00;21.60;69.70
74153;DHT22;62505;46.070;14.492;2023-01-06T01:21:27;21.60;69.80
74153;DHT22;62505;46.070;14.492;2023-01-06T01:23:56;21.60;69.80
74153;DHT22;62505;46.070;14.492;2023-01-06T01:26:22;21.60;69.80
74153;DHT22;62505;46.070;14.492;2023-01-06T01:28:49;21.60;69.80
74153;DHT22;62505;46.070;14.492;2023-01-06T01:31:16;21.60;69.80
74153;DHT22;62505;46.070;14.492;2023-01-06T01:33:45;21.60;69.80
74153;DHT22;62505;46.070;14.492;2023-01-06T01:36:14;21.50;69.70
74153;DHT22;62505;46.070;14.492;2023-01-06T01:38:41;21.50;69.80
74153;DHT22;62505;46.070;14.492;2023-01-06T01:41:13;21.50;69.80
74153;DHT22;62505;46.070;14.492;2023-01-06T01:43:44;21.50;69.80
74153;DHT22;62505;46.070;14.492;2023-01-06T01:46:15;21.60;69.90
74153;DHT22;62505;46.070;14.492;2023-01-06T01:48:43;21.50;70.60
74153;DHT22;62505;46.070;14.492;2023-01-06T01:51:12;21.50;69.80
74153;DHT22;62505;46.070;14.492;2023-01-06T01:53:44;21.50;69.90
74153;DHT22;62505;46.070;14.492;2023-01-06T01:56:15;21.60;69.90
74153;DHT22;62505;46.070;14.492;2023-01-06T01:58:47;21.50;69.90
74153;DHT22;62505;46.070;14.492;2023-01-06T02:01:14;21.50;69.90
74153;DHT22;62505;46.070;14.492;2023-01-06T02:03:41;21.50;69.90
74153;DHT22;62505;46.070;14.492;2023-01-06T02:06:12;21.50;69.90
74153;DHT22;62505;46.070;14.492;2023-01-06T02:08:41;21.50;70.00
74153;DHT22;62505;46.070;14.492;2023-01-06T02:11:09;21.50;69.90
74153;DHT22;62505;46.070;14.492;2023-01-06T02:13:39;21.50;69.90
74153;DHT22;62505;46.070;14.492;2023-01-06T02:16:14;21.50;69.90
74153;DHT22;62505;46.070;14.492;2023-01-06T02:18:52;21.50;70.00
74153;DHT22;62505;46.070;14.492;2023-01-06T02:21:36;21.50;70.00
74153;DHT22;62505;46.070;14.492;2023-01-06T02:30:30;21.50;70.00
74153;DHT22;62505;46.070;14.492;2023-01-06T02:33:08;21.50;70.00
74153;DHT22;62505;46.070;14.492;2023-01-06T02:36:03;21.50;70.10
74153;DHT22;62505;46.070;14.492;2023-01-06T02:38:43;21.50;70.00
74153;DHT22;62505;46.070;14.492;2023-01-06T02:41:25;21.50;70.10
74153;DHT22;62505;46.070;14.492;2023-01-06T02:44:00;21.50;70.10
74153;DHT22;62505;46.070;14.492;2023-01-06T02:46:46;21.50;70.10
74153;DHT22;62505;46.070;14.492;2023-01-06T02:49:23;21.50;70.00
74153;DHT22;62505;46.070;14.492;2023-01-06T02:51:56;21.50;70.10
74153;DHT22;62505;46.070;14.492;2023-01-06T02:54:30;21.50;70.10
74153;DHT22;62505;46.070;14.492;2023-01-06T02:57:04;21.50;70.10
74153;DHT22;62505;46.070;14.492;2023-01-06T02:59:38;21.50;70.10
74153;DHT22;62505;46.070;14.492;2023-01-06T03:02:07;21.50;70.10
74153;DHT22;62505;46.070;14.492;2023-01-06T03:04:39;21.50;70.10
74153;DHT22;62505;46.070;14.492;2023-01-06T03:07:10;21.50;70.10
74153;DHT22;62505;46.070;14.492;2023-01-06T03:09:39;21.50;70.10
74153;DHT22;62505;46.070;14.492;2023-01-06T03:12:08;21.50;70.20
74153;DHT22;62505;46.070;14.492;2023-01-06T03:14:40;21.50;70.30
74153;DHT22;62505;46.070;14.492;2023-01-06T03:17:10;21.50;70.30
74153;DHT22;62505;46.070;14.492;2023-01-06T03:19:38;21.50;70.20
74153;DHT22;62505;46.070;14.492;2023-01-06T03:22:07;21.50;70.20
74153;DHT22;62505;46.070;14.492;2023-01-06T03:24:36;21.50;70.30
74153;DHT22;62505;46.070;14.492;2023-01-06T03:27:04;21.50;70.20
74153;DHT22;62505;46.070;14.492;2023-01-06T03:29:31;21.50;70.30
74153;DHT22;62505;46.070;14.492;2023-01-06T03:32:04;21.50;70.20
74153;DHT22;62505;46.070;14.492;2023-01-06T03:34:55;21.50;70.30
74153;DHT22;62505;46.070;14.492;2023-01-06T03:37:31;21.50;70.40
74153;DHT22;62505;46.070;14.492;2023-01-06T03:40:08;21.50;70.30
74153;DHT22;62505;46.070;14.492;2023-01-06T03:42:37;21.50;70.30
74153;DHT22;62505;46.070;14.492;2023-01-06T03:45:33;21.50;70.30
74153;DHT22;62505;46.070;14.492;2023-01-06T03:48:06;21.50;70.30
74153;DHT22;62505;46.070;14.492;2023-01-06T03:50:39;21.50;70.40
74153;DHT22;62505;46.070;14.492;2023-01-06T03:53:16;21.50;70.30
74153;DHT22;62505;46.070;14.492;2023-01-06T03:55:48;21.50;70.30
74153;DHT22;62505;46.070;14.492;2023-01-06T03:58:18;21.50;70.30
74153;DHT22;62505;46.070;14.492;2023-01-06T04:00:46;21.50;70.30
74153;DHT22;62505;46.070;14.492;2023-01-06T04:03:14;21.50;70.30
74153;DHT22;62505;46.070;14.492;2023-01-06T04:05:43;21.50;70.40
74153;DHT22;62505;46.070;14.492;2023-01-06T04:08:10;21.50;70.30
74153;DHT22;62505;46.070;14.492;2023-01-06T04:10:36;21.50;70.40
74153;DHT22;62505;46.070;14.492;2023-01-06T04:13:03;21.50;70.40
74153;DHT22;62505;46.070;14.492;2023-01-06T04:15:29;21.50;70.40
74153;DHT22;62505;46.070;14.492;2023-01-06T04:17:57;21.50;70.40
74153;DHT22;62505;46.070;14.492;2023-01-06T04:20:26;21.50;70.40
74153;DHT22;62505;46.070;14.492;2023-01-06T04:22:55;21.50;70.40
74153;DHT22;62505;46.070;14.492;2023-01-06T04:25:23;21.50;70.30
74153;DHT22;62505;46.070;14.492;2023-01-06T04:27:50;21.50;70.40
74153;DHT22;62505;46.070;14.492;2023-01-06T04:30:17;21.50;71.10
74153;DHT22;62505;46.070;14.492;2023-01-06T04:32:44;21.50;70.40
74153;DHT22;62505;46.070;14.492;2023-01-06T04:35:11;21.50;70.40
74153;DHT22;62505;46.070;14.492;2023-01-06T04:37:38;21.50;70.40
74153;DHT22;62505;46.070;14.492;2023-01-06T04:40:07;21.50;70.40
74153;DHT22;62505;46.070;14.492;2023-01-06T04:42:34;21.50;70.40
74153;DHT22;62505;46.070;14.492;2023-01-06T04:45:15;21.50;70.40
74153;DHT22;62505;46.070;14.492;2023-01-06T04:47:42;21.50;70.40
74153;DHT22;62505;46.070;14.492;2023-01-06T04:50:09;21.50;70.50
74153;DHT22;62505;46.070;14.492;2023-01-06T04:52:36;21.50;70.50
74153;DHT22;62505;46.070;14.492;2023-01-06T04:55:03;21.50;70.40
74153;DHT22;62505;46.070;14.492;2023-01-06T04:57:32;21.50;70.50
74153;DHT22;62505;46.070;14.492;2023-01-06T04:59:58;21.50;70.40
74153;DHT22;62505;46.070;14.492;2023-01-06T05:02:25;21.50;70.50
74153;DHT22;62505;46.070;14.492;2023-01-06T05:04:52;21.50;70.50
74153;DHT22;62505;46.070;14.492;2023-01-06T05:07:19;21.50;70.50
74153;DHT22;62505;46.070;14.492;2023-01-06T05:09:46;21.50;70.50
74153;DHT22;62505;46.070;14.492;2023-01-06T05:12:13;21.50;70.50
74153;DHT22;62505;46.070;14.492;2023-01-06T05:14:41;21.50;70.50
74153;DHT22;62505;46.070;14.492;2023-01-06T05:17:08;21.50;70.60
74153;DHT22;62505;46.070;14.492;2023-01-06T05:19:35;21.50;70.60
74153;DHT22;62505;46.070;14.492;2023-01-06T05:22:02;21.50;70.60
74153;DHT22;62505;46.070;14.492;2023-01-06T05:24:29;21.50;70.60
74153;DHT22;62505;46.070;14.492;2023-01-06T05:26:55;21.40;70.60
74153;DHT22;62505;46.070;14.492;2023-01-06T05:29:22;21.50;70.60
74153;DHT22;62505;46.070;14.492;2023-01-06T05:31:51;21.50;70.70
74153;DHT22;62505;46.070;14.492;2023-01-06T05:34:17;21.50;70.70
74153;DHT22;62505;46.070;14.492;2023-01-06T05:36:44;21.50;70.70
74153;DHT22;62505;46.070;14.492;2023-01-06T05:39:11;21.50;70.70
74153;DHT22;62505;46.070;14.492;2023-01-06T05:41:38;21.50;70.80
74153;DHT22;62505;46.070;14.492;2023-01-06T05:44:05;21.50;70.80
74153;DHT22;62505;46.070;14.492;2023-01-06T05:46:32;21.50;70.80
74153;DHT22;62505;46.070;14.492;2023-01-06T05:49:01;21.50;70.80
74153;DHT22;62505;46.070;14.492;2023-01-06T05:51:28;21.50;70.90
74153;DHT22;62505;46.070;14.492;2023-01-06T05:53:55;21.50;70.80
74153;DHT22;62505;46.070;14.492;2023-01-06T05:56:22;21.50;70.80
74153;DHT22;62505;46.070;14.492;2023-01-06T05:58:51;21.50;70.90
74153;DHT22;62505;46.070;14.492;2023-01-06T06:01:20;21.50;70.90
74153;DHT22;62505;46.070;14.492;2023-01-06T06:03:47;21.50;70.90
74153;DHT22;62505;46.070;14.492;2023-01-06T06:06:16;21.50;71.70
74153;DHT22;62505;46.070;14.492;2023-01-06T06:08:43;21.50;70.90
74153;DHT22;62505;46.070;14.492;2023-01-06T06:11:12;21.50;70.80
74153;DHT22;62505;46.070;14.492;2023-01-06T06:13:45;21.50;70.90
74153;DHT22;62505;46.070;14.492;2023-01-06T06:16:13;21.50;71.00
74153;DHT22;62505;46.070;14.492;2023-01-06T06:18:41;21.50;70.90
74153;DHT22;62505;46.070;14.492;2023-01-06T06:21:09;21.50;70.90
74153;DHT22;62505;46.070;14.492;2023-01-06T06:23:38;21.50;71.00
74153;DHT22;62505;46.070;14.492;2023-01-06T06:26:05;21.50;70.90
74153;DHT22;62505;46.070;14.492;2023-01-06T06:28:34;21.50;70.90
74153;DHT22;62505;46.070;14.492;2023-01-06T06:31:04;21.50;70.90
74153;DHT22;62505;46.070;14.492;2023-01-06T06:33:32;21.40;70.90
74153;DHT22;62505;46.070;14.492;2023-01-06T06:36:00;21.50;70.50
74153;DHT22;62505;46.070;14.492;2023-01-06T06:38:27;21.40;69.80
74153;DHT22;62505;46.070;14.492;2023-01-06T06:40:55;21.40;69.20
74153;DHT22;62505;46.070;14.492;2023-01-06T06:43:22;21.50;68.00
74153;DHT22;62505;46.070;14.492;2023-01-06T06:45:49;21.50;67.70
74153;DHT22;62505;46.070;14.492;2023-01-06T06:48:16;21.50;68.10
74153;DHT22;62505;46.070;14.492;2023-01-06T06:50:43;21.50;68.60
74153;DHT22;62505;46.070;14.492;2023-01-06T06:53:10;21.50;68.80
74153;DHT22;62505;46.070;14.492;2023-01-06T06:55:37;21.50;68.70
74153;DHT22;62505;46.070;14.492;2023-01-06T06:58:05;21.50;68.80
74153;DHT22;62505;46.070;14.492;2023-01-06T07:00:32;21.50;68.90
74153;DHT22;62505;46.070;14.492;2023-01-06T07:02:59;21.40;68.90
74153;DHT22;62505;46.070;14.492;2023-01-06T07:05:26;21.40;62.70
74153;DHT22;62505;46.070;14.492;2023-01-06T07:07:54;21.30;61.50
74153;DHT22;62505;46.070;14.492;2023-01-06T07:10:20;21.30;65.10
74153;DHT22;62505;46.070;14.492;2023-01-06T07:12:47;21.50;63.40
74153;DHT22;62505;46.070;14.492;2023-01-06T07:15:16;21.70;62.90
74153;DHT22;62505;46.070;14.492;2023-01-06T07:17:43;21.90;62.50
74153;DHT22;62505;46.070;14.492;2023-01-06T07:20:10;22.10;62.20
74153;DHT22;62505;46.070;14.492;2023-01-06T07:22:37;22.20;61.80
74153;DHT22;62505;46.070;14.492;2023-01-06T07:25:06;22.30;61.80
74153;DHT22;62505;46.070;14.492;2023-01-06T07:27:36;22.30;61.80
74153;DHT22;62505;46.070;14.492;2023-01-06T07:30:04;22.40;61.90
74153;DHT22;62505;46.070;14.492;2023-01-06T07:32:32;22.50;62.00
74153;DHT22;62505;46.070;14.492;2023-01-06T07:34:59;22.50;62.00
74153;DHT22;62505;46.070;14.492;2023-01-06T07:37:26;22.60;62.10
74153;DHT22;62505;46.070;14.492;2023-01-06T07:39:53;22.70;62.30
74153;DHT22;62505;46.070;14.492;2023-01-06T07:42:19;22.70;62.20
74153;DHT22;62505;46.070;14.492;2023-01-06T07:44:46;22.70;62.20
74153;DHT22;62505;46.070;14.492;2023-01-06T07:47:13;22.80;62.50
74153;DHT22;62505;46.070;14.492;2023-01-06T07:49:41;22.80;62.50
74153;DHT22;62505;46.070;14.492;2023-01-06T07:52:08;22.80;62.60
74153;DHT22;62505;46.070;14.492;2023-01-06T07:54:35;22.80;62.70
74153;DHT22;62505;46.070;14.492;2023-01-06T07:57:02;22.80;62.90
74153;DHT22;62505;46.070;14.492;2023-01-06T07:59:29;22.80;63.90
74153;DHT22;62505;46.070;14.492;2023-01-06T08:01:56;22.90;63.30
74153;DHT22;62505;46.070;14.492;2023-01-06T08:04:23;22.80;63.50
74153;DHT22;62505;46.070;14.492;2023-01-06T08:06:51;22.80;63.70
74153;DHT22;62505;46.070;14.492;2023-01-06T08:09:18;22.80;63.90
74153;DHT22;62505;46.070;14.492;2023-01-06T08:11:45;22.80;64.00
74153;DHT22;62505;46.070;14.492;2023-01-06T08:14:11;22.80;64.40
74153;DHT22;62505;46.070;14.492;2023-01-06T08:16:39;22.80;64.60
74153;DHT22;62505;46.070;14.492;2023-01-06T08:19:06;22.80;64.90
74153;DHT22;62505;46.070;14.492;2023-01-06T08:21:33;22.70;65.30
74153;DHT22;62505;46.070;14.492;2023-01-06T08:24:02;22.70;65.80
74153;DHT22;62505;46.070;14.492;2023-01-06T08:26:29;22.60;65.90
74153;DHT22;62505;46.070;14.492;2023-01-06T08:28:56;22.60;66.50
74153;DHT22;62505;46.070;14.492;2023-01-06T08:31:23;22.60;67.00
74153;DHT22;62505;46.070;14.492;2023-01-06T08:33:50;22.60;68.20
74153;DHT22;62505;46.070;14.492;2023-01-06T08:36:19;22.60;68.40
74153;DHT22;62505;46.070;14.492;2023-01-06T08:38:47;22.60;68.90
74153;DHT22;62505;46.070;14.492;2023-01-06T08:41:16;22.50;69.10
74153;DHT22;62505;46.070;14.492;2023-01-06T08:43:45;22.50;70.70
74153;DHT22;62505;46.070;14.492;2023-01-06T08:46:14;22.50;71.80
74153;DHT22;62505;46.070;14.492;2023-01-06T08:48:41;22.50;70.90
74153;DHT22;62505;46.070;14.492;2023-01-06T08:51:12;22.40;67.70
74153;DHT22;62505;46.070;14.492;2023-01-06T08:53:39;22.10;55.50
74153;DHT22;62505;46.070;14.492;2023-01-06T08:56:11;21.80;52.20
74153;DHT22;62505;46.070;14.492;2023-01-06T08:58:40;21.60;53.40
74153;DHT22;62505;46.070;14.492;2023-01-06T09:01:14;21.60;55.80
74153;DHT22;62505;46.070;14.492;2023-01-06T09:03:41;21.60;57.00
74153;DHT22;62505;46.070;14.492;2023-01-06T09:06:08;21.60;57.60
74153;DHT22;62505;46.070;14.492;2023-01-06T09:08:35;21.60;57.80
74153;DHT22;62505;46.070;14.492;2023-01-06T09:11:04;21.70;58.10
74153;DHT22;62505;46.070;14.492;2023-01-06T09:13:31;21.70;58.90
74153;DHT22;62505;46.070;14.492;2023-01-06T09:15:59;21.70;59.30
74153;DHT22;62505;46.070;14.492;2023-01-06T09:18:27;21.70;59.80
74153;DHT22;62505;46.070;14.492;2023-01-06T09:20:54;21.70;59.90
74153;DHT22;62505;46.070;14.492;2023-01-06T09:23:21;21.70;59.70
74153;DHT22;62505;46.070;14.492;2023-01-06T09:25:48;21.70;59.90
74153;DHT22;62505;46.070;14.492;2023-01-06T09:28:15;21.70;60.10
74153;DHT22;62505;46.070;14.492;2023-01-06T09:30:42;21.70;60.80
74153;DHT22;62505;46.070;14.492;2023-01-06T09:33:12;21.70;60.60
74153;DHT22;62505;46.070;14.492;2023-01-06T09:35:39;21.70;61.50
74153;DHT22;62505;46.070;14.492;2023-01-06T09:38:05;21.70;61.70
74153;DHT22;62505;46.070;14.492;2023-01-06T09:40:40;21.70;61.80
74153;DHT22;62505;46.070;14.492;2023-01-06T09:43:18;21.70;62.10
74153;DHT22;62505;46.070;14.492;2023-01-06T09:45:52;21.70;62.40
74153;DHT22;62505;46.070;14.492;2023-01-06T09:48:27;21.70;62.60
74153;DHT22;62505;46.070;14.492;2023-01-06T09:50:58;21.70;62.70
74153;DHT22;62505;46.070;14.492;2023-01-06T09:53:28;21.70;63.20
74153;DHT22;62505;46.070;14.492;2023-01-06T09:55:58;21.80;63.00
74153;DHT22;62505;46.070;14.492;2023-01-06T09:58:30;21.80;63.20
74153;DHT22;62505;46.070;14.492;2023-01-06T10:01:01;21.80;63.60
74153;DHT22;62505;46.070;14.492;2023-01-06T10:03:31;21.80;63.70
74153;DHT22;62505;46.070;14.492;2023-01-06T10:06:07;21.80;63.90
74153;DHT22;62505;46.070;14.492;2023-01-06T10:08:40;21.80;64.10
74153;DHT22;62505;46.070;14.492;2023-01-06T10:11:12;21.80;64.20
74153;DHT22;62505;46.070;14.492;2023-01-06T10:13:59;21.80;64.30
74153;DHT22;62505;46.070;14.492;2023-01-06T10:16:39;21.80;64.20
74153;DHT22;62505;46.070;14.492;2023-01-06T10:19:18;21.80;64.30
74153;DHT22;62505;46.070;14.492;2023-01-06T10:21:56;21.80;64.40
74153;DHT22;62505;46.070;14.492;2023-01-06T10:24:32;21.80;64.80
74153;DHT22;62505;46.070;14.492;2023-01-06T10:27:14;21.80;64.70
74153;DHT22;62505;46.070;14.492;2023-01-06T10:29:44;21.80;64.90
74153;DHT22;62505;46.070;14.492;2023-01-06T10:32:15;21.80;65.00
74153;DHT22;62505;46.070;14.492;2023-01-06T10:34:45;21.80;65.40
74153;DHT22;62505;46.070;14.492;2023-01-06T10:37:18;21.80;65.70
74153;DHT22;62505;46.070;14.492;2023-01-06T10:39:49;21.80;65.90
74153;DHT22;62505;46.070;14.492;2023-01-06T10:42:24;21.80;65.70
74153;DHT22;62505;46.070;14.492;2023-01-06T10:45:10;21.80;65.90
74153;DHT22;62505;46.070;14.492;2023-01-06T10:47:39;21.80;66.10
74153;DHT22;62505;46.070;14.492;2023-01-06T10:50:11;21.80;65.90
74153;DHT22;62505;46.070;14.492;2023-01-06T10:52:38;21.80;66.00
74153;DHT22;62505;46.070;14.492;2023-01-06T10:55:06;21.80;65.80
74153;DHT22;62505;46.070;14.492;2023-01-06T10:57:38;21.90;66.10
74153;DHT22;62505;46.070;14.492;2023-01-06T11:00:17;21.80;66.30
74153;DHT22;62505;46.070;14.492;2023-01-06T11:02:48;21.90;65.40
74153;DHT22;62505;46.070;14.492;2023-01-06T11:05:18;21.80;65.40
74153;DHT22;62505;46.070;14.492;2023-01-06T11:07:47;21.80;65.40
74153;DHT22;62505;46.070;14.492;2023-01-06T11:10:26;21.80;65.70
74153;DHT22;62505;46.070;14.492;2023-01-06T11:12:54;21.80;65.80
74153;DHT22;62505;46.070;14.492;2023-01-06T11:15:24;21.80;65.70
74153;DHT22;62505;46.070;14.492;2023-01-06T11:17:53;21.80;65.60
74153;DHT22;62505;46.070;14.492;2023-01-06T11:20:32;21.80;65.60
74153;DHT22;62505;46.070;14.492;2023-01-06T11:23:17;21.80;65.70
74153;DHT22;62505;46.070;14.492;2023-01-06T11:28:41;21.80;65.60
74153;DHT22;62505;46.070;14.492;2023-01-06T11:31:15;21.80;65.70
74153;DHT22;62505;46.070;14.492;2023-01-06T11:33:49;21.80;65.50
74153;DHT22;62505;46.070;14.492;2023-01-06T11:36:20;21.80;65.80
74153;DHT22;62505;46.070;14.492;2023-01-06T11:38:49;21.80;66.00
74153;DHT22;62505;46.070;14.492;2023-01-06T11:41:29;21.80;65.70
74153;DHT22;62505;46.070;14.492;2023-01-06T11:44:05;21.80;65.70
74153;DHT22;62505;46.070;14.492;2023-01-06T11:46:33;21.80;65.80
74153;DHT22;62505;46.070;14.492;2023-01-06T11:49:02;21.80;66.00
74153;DHT22;62505;46.070;14.492;2023-01-06T11:51:44;21.80;66.00
74153;DHT22;62505;46.070;14.492;2023-01-06T11:54:23;21.80;65.90
74153;DHT22;62505;46.070;14.492;2023-01-06T11:57:06;21.70;65.90
74153;DHT22;62505;46.070;14.492;2023-01-06T11:59:47;21.70;65.90
74153;DHT22;62505;46.070;14.492;2023-01-06T12:02:21;21.70;65.90
74153;DHT22;62505;46.070;14.492;2023-01-06T12:04:51;21.70;66.00
74153;DHT22;62505;46.070;14.492;2023-01-06T12:07:24;21.70;66.00
74153;DHT22;62505;46.070;14.492;2023-01-06T12:09:58;21.70;66.10
74153;DHT22;62505;46.070;14.492;2023-01-06T12:12:27;21.70;66.10
74153;DHT22;62505;46.070;14.492;2023-01-06T12:14:54;21.70;66.20
74153;DHT22;62505;46.070;14.492;2023-01-06T12:17:33;21.70;66.20
74153;DHT22;62505;46.070;14.492;2023-01-06T12:20:05;21.70;66.20
74153;DHT22;62505;46.070;14.492;2023-01-06T12:22:38;21.70;66.20
74153;DHT22;62505;46.070;14.492;2023-01-06T12:25:12;21.70;66.20
74153;DHT22;62505;46.070;14.492;2023-01-06T12:27:46;21.70;66.20
74153;DHT22;62505;46.070;14.492;2023-01-06T12:30:18;21.60;66.10
74153;DHT22;62505;46.070;14.492;2023-01-06T12:32:47;21.70;66.30
74153;DHT22;62505;46.070;14.492;2023-01-06T12:35:20;21.70;66.20
74153;DHT22;62505;46.070;14.492;2023-01-06T12:37:53;21.70;66.20
74153;DHT22;62505;46.070;14.492;2023-01-06T12:40:26;21.70;66.20
74153;DHT22;62505;46.070;14.492;2023-01-06T12:43:00;21.70;66.20
74153;DHT22;62505;46.070;14.492;2023-01-06T12:45:35;21.70;66.20
74153;DHT22;62505;46.070;14.492;2023-01-06T12:48:16;21.70;66.20
74153;DHT22;62505;46.070;14.492;2023-01-06T12:50:46;21.70;66.30
74153;DHT22;62505;46.070;14.492;2023-01-06T12:53:21;21.70;66.30
74153;DHT22;62505;46.070;14.492;2023-01-06T12:56:02;21.70;66.30
74153;DHT22;62505;46.070;14.492;2023-01-06T12:58:39;21.70;66.30
74153;DHT22;62505;46.070;14.492;2023-01-06T13:01:15;21.70;66.40
74153;DHT22;62505;46.070;14.492;2023-01-06T13:04:05;21.60;66.20
74153;DHT22;62505;46.070;14.492;2023-01-06T13:06:51;21.60;66.20
74153;DHT22;62505;46.070;14.492;2023-01-06T13:09:36;21.60;66.20
74153;DHT22;62505;46.070;14.492;2023-01-06T13:12:25;21.60;67.10
74153;DHT22;62505;46.070;14.492;2023-01-06T13:14:58;21.60;66.30
74153;DHT22;62505;46.070;14.492;2023-01-06T13:17:33;21.60;66.20
74153;DHT22;62505;46.070;14.492;2023-01-06T13:20:03;21.70;66.30
74153;DHT22;62505;46.070;14.492;2023-01-06T13:22:46;21.60;66.30
74153;DHT22;62505;46.070;14.492;2023-01-06T13:25:32;21.60;66.20
74153;DHT22;62505;46.070;14.492;2023-01-06T13:28:09;21.60;66.40
74153;DHT22;62505;46.070;14.492;2023-01-06T13:34:19;21.60;66.40
74153;DHT22;62505;46.070;14.492;2023-01-06T13:37:13;21.60;66.40
74153;DHT22;62505;46.070;14.492;2023-01-06T13:39:43;21.60;66.40
74153;DHT22;62505;46.070;14.492;2023-01-06T13:42:14;21.60;66.50
74153;DHT22;62505;46.070;14.492;2023-01-06T13:44:44;21.60;66.40
74153;DHT22;62505;46.070;14.492;2023-01-06T13:47:15;21.60;66.40
74153;DHT22;62505;46.070;14.492;2023-01-06T13:49:43;21.60;66.40
74153;DHT22;62505;46.070;14.492;2023-01-06T13:52:16;21.60;66.50
74153;DHT22;62505;46.070;14.492;2023-01-06T13:55:05;21.60;66.40
74153;DHT22;62505;46.070;14.492;2023-01-06T13:57:38;21.60;66.40
74153;DHT22;62505;46.070;14.492;2023-01-06T14:00:18;21.60;66.40
74153;DHT22;62505;46.070;14.492;2023-01-06T14:03:22;21.60;66.50
74153;DHT22;62505;46.070;14.492;2023-01-06T14:05:55;21.60;66.50
74153;DHT22;62505;46.070;14.492;2023-01-06T14:08:24;21.60;66.50
74153;DHT22;62505;46.070;14.492;2023-01-06T14:11:00;21.60;66.50
74153;DHT22;62505;46.070;14.492;2023-01-06T14:13:35;21.60;66.50
74153;DHT22;62505;46.070;14.492;2023-01-06T14:16:06;21.60;66.50
74153;DHT22;62505;46.070;14.492;2023-01-06T14:18:42;21.60;66.50
74153;DHT22;62505;46.070;14.492;2023-01-06T14:21:19;21.60;67.30
74153;DHT22;62505;46.070;14.492;2023-01-06T14:23:53;21.60;66.60
74153;DHT22;62505;46.070;14.492;2023-01-06T14:26:21;21.50;66.50
74153;DHT22;62505;46.070;14.492;2023-01-06T14:28:49;21.60;66.60
74153;DHT22;62505;46.070;14.492;2023-01-06T14:31:46;21.60;66.50
74153;DHT22;62505;46.070;14.492;2023-01-06T14:34:16;21.60;66.50
74153;DHT22;62505;46.070;14.492;2023-01-06T14:36:44;21.60;66.60
74153;DHT22;62505;46.070;14.492;2023-01-06T14:39:24;21.60;66.50
74153;DHT22;62505;46.070;14.492;2023-01-06T14:41:58;21.60;66.80
74153;DHT22;62505;46.070;14.492;2023-01-06T14:44:35;21.50;66.70
74153;DHT22;62505;46.070;14.492;2023-01-06T14:47:05;21.50;66.70
74153;DHT22;62505;46.070;14.492;2023-01-06T14:49:41;21.50;66.70
74153;DHT22;62505;46.070;14.492;2023-01-06T14:52:14;21.50;66.70
74153;DHT22;62505;46.070;14.492;2023-01-06T14:54:43;21.50;66.70
74153;DHT22;62505;46.070;14.492;2023-01-06T14:57:23;21.60;66.70
74153;DHT22;62505;46.070;14.492;2023-01-06T15:00:06;21.50;66.70
74153;DHT22;62505;46.070;14.492;2023-01-06T15:02:34;21.50;66.70
74153;DHT22;62505;46.070;14.492;2023-01-06T15:05:01;21.50;66.70
74153;DHT22;62505;46.070;14.492;2023-01-06T15:07:28;21.50;66.70
74153;DHT22;62505;46.070;14.492;2023-01-06T15:10:17;21.50;66.70
74153;DHT22;62505;46.070;14.492;2023-01-06T15:12:49;21.50;66.70
74153;DHT22;62505;46.070;14.492;2023-01-06T15:15:21;21.50;66.80
74153;DHT22;62505;46.070;14.492;2023-01-06T15:17:49;21.50;66.90
74153;DHT22;62505;46.070;14.492;2023-01-06T15:20:17;21.50;66.90
74153;DHT22;62505;46.070;14.492;2023-01-06T15:22:46;21.50;66.90
74153;DHT22;62505;46.070;14.492;2023-01-06T15:25:20;21.50;66.90
74153;DHT22;62505;46.070;14.492;2023-01-06T15:27:47;21.50;67.80
74153;DHT22;62505;46.070;14.492;2023-01-06T15:30:16;21.50;67.10
74153;DHT22;62505;46.070;14.492;2023-01-06T15:32:48;21.50;67.00
74153;DHT22;62505;46.070;14.492;2023-01-06T15:35:19;21.50;67.10
74153;DHT22;62505;46.070;14.492;2023-01-06T15:37:47;21.50;67.00
74153;DHT22;62505;46.070;14.492;2023-01-06T15:40:19;21.50;67.10
74153;DHT22;62505;46.070;14.492;2023-01-06T15:42:47;21.50;67.10
74153;DHT22;62505;46.070;14.492;2023-01-06T15:45:23;21.50;67.10
74153;DHT22;62505;46.070;14.492;2023-01-06T15:47:54;21.50;67.10
74153;DHT22;62505;46.070;14.492;2023-01-06T15:50:25;21.50;67.00
74153;DHT22;62505;46.070;14.492;2023-01-06T15:52:54;21.50;67.00